Terminal Aerodrome Forecast
Issued by NWS

Home | Current Version | Previous Version | Text Only | Print | Product List | Glossary Off
Versions: 1 2 3 4 5 6 7 8 9 10 11 12 13 14 15

000
FTUS43 KMPX 262328
TAFRWF
TAF
KRWF 262328Z 2700/2724 30005KT P6SM BKN025 BKN110
     FM270100 26005KT P6SM SCT025 BKN150
     FM271200 28008KT P6SM SCT060=

USA.gov is the U.S. government's official web portal to all federal, state and local government web resources and services.